sensor_id;sensor_type;location;lat;lon;timestamp;P1;durP1;ratioP1;P2;durP2;ratioP2
24325;SDS011;12448;45.532;5.290;2023-12-20T00:02:03;14.18;;;9.02;;
24325;SDS011;12448;45.532;5.290;2023-12-20T00:04:32;14.85;;;9.02;;
24325;SDS011;12448;45.532;5.290;2023-12-20T00:07:04;14.48;;;8.88;;
24325;SDS011;12448;45.532;5.290;2023-12-20T00:09:30;16.50;;;9.52;;
24325;SDS011;12448;45.532;5.290;2023-12-20T00:11:56;16.30;;;9.35;;
24325;SDS011;12448;45.532;5.290;2023-12-20T00:14:25;15.95;;;9.82;;
24325;SDS011;12448;45.532;5.290;2023-12-20T00:16:54;17.45;;;10.15;;
24325;SDS011;12448;45.532;5.290;2023-12-20T00:19:20;13.40;;;8.65;;
24325;SDS011;12448;45.532;5.290;2023-12-20T00:21:46;15.15;;;8.70;;
24325;SDS011;12448;45.532;5.290;2023-12-20T00:24:14;16.60;;;9.02;;
24325;SDS011;12448;45.532;5.290;2023-12-20T00:26:51;13.18;;;8.18;;
24325;SDS011;12448;45.532;5.290;2023-12-20T00:29:20;30.13;;;12.20;;
24325;SDS011;12448;45.532;5.290;2023-12-20T00:31:46;16.50;;;8.23;;
24325;SDS011;12448;45.532;5.290;2023-12-20T00:34:12;12.73;;;8.05;;
24325;SDS011;12448;45.532;5.290;2023-12-20T00:36:41;16.08;;;8.48;;
24325;SDS011;12448;45.532;5.290;2023-12-20T00:39:10;14.77;;;8.88;;
24325;SDS011;12448;45.532;5.290;2023-12-20T00:41:35;13.18;;;7.95;;
24325;SDS011;12448;45.532;5.290;2023-12-20T00:44:02;17.38;;;8.52;;
24325;SDS011;12448;45.532;5.290;2023-12-20T00:46:31;13.65;;;7.95;;
24325;SDS011;12448;45.532;5.290;2023-12-20T00:49:03;13.10;;;8.52;;
24325;SDS011;12448;45.532;5.290;2023-12-20T00:51:29;15.43;;;8.80;;
24325;SDS011;12448;45.532;5.290;2023-12-20T00:53:58;14.27;;;8.63;;
24325;SDS011;12448;45.532;5.290;2023-12-20T00:56:29;13.32;;;8.10;;
24325;SDS011;12448;45.532;5.290;2023-12-20T00:58:58;14.98;;;9.00;;
24325;SDS011;12448;45.532;5.290;2023-12-20T01:01:24;14.88;;;8.38;;
24325;SDS011;12448;45.532;5.290;2023-12-20T01:04:05;16.42;;;7.75;;
24325;SDS011;12448;45.532;5.290;2023-12-20T01:06:39;15.00;;;9.35;;
24325;SDS011;12448;45.532;5.290;2023-12-20T01:09:05;17.45;;;9.77;;
24325;SDS011;12448;45.532;5.290;2023-12-20T01:11:34;17.15;;;9.52;;
24325;SDS011;12448;45.532;5.290;2023-12-20T01:14:06;17.27;;;9.07;;
24325;SDS011;12448;45.532;5.290;2023-12-20T01:16:32;19.77;;;9.60;;
24325;SDS011;12448;45.532;5.290;2023-12-20T01:19:00;14.80;;;9.68;;
24325;SDS011;12448;45.532;5.290;2023-12-20T01:21:26;18.88;;;9.82;;
24325;SDS011;12448;45.532;5.290;2023-12-20T01:23:52;18.48;;;9.57;;
24325;SDS011;12448;45.532;5.290;2023-12-20T01:26:20;18.40;;;10.45;;
24325;SDS011;12448;45.532;5.290;2023-12-20T01:28:46;16.80;;;9.55;;
24325;SDS011;12448;45.532;5.290;2023-12-20T01:31:12;16.75;;;9.30;;
24325;SDS011;12448;45.532;5.290;2023-12-20T01:33:44;16.63;;;9.60;;
24325;SDS011;12448;45.532;5.290;2023-12-20T01:36:10;16.42;;;9.65;;
24325;SDS011;12448;45.532;5.290;2023-12-20T01:38:36;17.27;;;10.32;;
24325;SDS011;12448;45.532;5.290;2023-12-20T01:41:02;16.33;;;10.45;;
24325;SDS011;12448;45.532;5.290;2023-12-20T01:43:31;16.55;;;9.90;;
24325;SDS011;12448;45.532;5.290;2023-12-20T01:46:00;21.42;;;10.18;;
24325;SDS011;12448;45.532;5.290;2023-12-20T01:48:26;17.67;;;10.30;;
24325;SDS011;12448;45.532;5.290;2023-12-20T01:51:00;17.10;;;9.70;;
24325;SDS011;12448;45.532;5.290;2023-12-20T01:53:30;17.17;;;9.35;;
24325;SDS011;12448;45.532;5.290;2023-12-20T01:56:03;15.60;;;9.23;;
24325;SDS011;12448;45.532;5.290;2023-12-20T01:58:30;15.77;;;9.65;;
24325;SDS011;12448;45.532;5.290;2023-12-20T02:00:56;21.42;;;10.43;;
24325;SDS011;12448;45.532;5.290;2023-12-20T02:03:25;17.00;;;10.05;;
24325;SDS011;12448;45.532;5.290;2023-12-20T02:06:18;15.75;;;9.45;;
24325;SDS011;12448;45.532;5.290;2023-12-20T02:08:47;16.13;;;9.20;;
24325;SDS011;12448;45.532;5.290;2023-12-20T02:11:17;19.67;;;9.98;;
24325;SDS011;12448;45.532;5.290;2023-12-20T02:13:56;17.75;;;9.45;;
24325;SDS011;12448;45.532;5.290;2023-12-20T02:16:23;16.83;;;9.75;;
24325;SDS011;12448;45.532;5.290;2023-12-20T02:18:49;14.77;;;9.40;;
24325;SDS011;12448;45.532;5.290;2023-12-20T02:21:15;16.17;;;9.40;;
24325;SDS011;12448;45.532;5.290;2023-12-20T02:23:41;14.38;;;9.10;;
24325;SDS011;12448;45.532;5.290;2023-12-20T02:26:13;13.82;;;8.40;;
24325;SDS011;12448;45.532;5.290;2023-12-20T02:28:48;15.18;;;9.25;;
24325;SDS011;12448;45.532;5.290;2023-12-20T02:31:14;17.20;;;9.45;;
24325;SDS011;12448;45.532;5.290;2023-12-20T02:33:42;16.58;;;9.10;;
24325;SDS011;12448;45.532;5.290;2023-12-20T02:36:13;17.80;;;9.32;;
24325;SDS011;12448;45.532;5.290;2023-12-20T02:38:50;15.60;;;9.10;;
24325;SDS011;12448;45.532;5.290;2023-12-20T02:41:19;16.33;;;9.93;;
24325;SDS011;12448;45.532;5.290;2023-12-20T02:43:45;15.30;;;9.40;;
24325;SDS011;12448;45.532;5.290;2023-12-20T02:46:11;15.35;;;9.07;;
24325;SDS011;12448;45.532;5.290;2023-12-20T02:48:38;15.27;;;9.05;;
24325;SDS011;12448;45.532;5.290;2023-12-20T02:51:50;15.40;;;9.35;;
24325;SDS011;12448;45.532;5.290;2023-12-20T02:54:00;18.20;;;9.20;;
24325;SDS011;12448;45.532;5.290;2023-12-20T02:56:28;17.40;;;10.30;;
24325;SDS011;12448;45.532;5.290;2023-12-20T02:58:54;18.08;;;9.70;;
24325;SDS011;12448;45.532;5.290;2023-12-20T03:07:41;18.73;;;11.27;;
24325;SDS011;12448;45.532;5.290;2023-12-20T03:10:07;20.85;;;10.85;;
24325;SDS011;12448;45.532;5.290;2023-12-20T03:12:37;23.42;;;15.70;;
24325;SDS011;12448;45.532;5.290;2023-12-20T03:15:06;24.10;;;15.93;;
24325;SDS011;12448;45.532;5.290;2023-12-20T03:17:37;23.70;;;14.52;;
24325;SDS011;12448;45.532;5.290;2023-12-20T03:20:04;20.40;;;12.15;;
24325;SDS011;12448;45.532;5.290;2023-12-20T03:22:53;12.63;;;7.50;;
24325;SDS011;12448;45.532;5.290;2023-12-20T03:28:39;51.17;;;32.35;;
24325;SDS011;12448;45.532;5.290;2023-12-20T03:31:15;16.73;;;7.78;;
24325;SDS011;12448;45.532;5.290;2023-12-20T03:33:46;12.73;;;6.97;;
24325;SDS011;12448;45.532;5.290;2023-12-20T03:36:16;14.85;;;9.48;;
24325;SDS011;12448;45.532;5.290;2023-12-20T03:38:44;9.27;;;6.07;;
24325;SDS011;12448;45.532;5.290;2023-12-20T03:41:13;12.75;;;5.45;;
24325;SDS011;12448;45.532;5.290;2023-12-20T03:43:41;7.97;;;5.10;;
24325;SDS011;12448;45.532;5.290;2023-12-20T03:46:08;10.77;;;5.25;;
24325;SDS011;12448;45.532;5.290;2023-12-20T03:48:59;14.85;;;7.93;;
24325;SDS011;12448;45.532;5.290;2023-12-20T03:51:25;14.13;;;7.32;;
24325;SDS011;12448;45.532;5.290;2023-12-20T03:53:51;15.55;;;8.15;;
24325;SDS011;12448;45.532;5.290;2023-12-20T03:56:20;14.27;;;8.18;;
24325;SDS011;12448;45.532;5.290;2023-12-20T03:58:46;15.15;;;7.70;;
24325;SDS011;12448;45.532;5.290;2023-12-20T04:01:14;15.27;;;7.90;;
24325;SDS011;12448;45.532;5.290;2023-12-20T04:03:41;24.40;;;9.55;;
24325;SDS011;12448;45.532;5.290;2023-12-20T04:06:09;17.92;;;10.18;;
24325;SDS011;12448;45.532;5.290;2023-12-20T04:08:49;16.63;;;9.18;;
24325;SDS011;12448;45.532;5.290;2023-12-20T04:11:23;16.63;;;9.55;;
24325;SDS011;12448;45.532;5.290;2023-12-20T04:17:35;25.80;;;12.35;;
24325;SDS011;12448;45.532;5.290;2023-12-20T04:20:16;35.53;;;13.15;;
24325;SDS011;12448;45.532;5.290;2023-12-20T04:29:30;17.77;;;9.35;;
24325;SDS011;12448;45.532;5.290;2023-12-20T04:31:52;17.55;;;8.85;;
24325;SDS011;12448;45.532;5.290;2023-12-20T04:34:18;15.68;;;8.00;;
24325;SDS011;12448;45.532;5.290;2023-12-20T04:36:46;15.93;;;8.35;;
24325;SDS011;12448;45.532;5.290;2023-12-20T04:39:15;14.23;;;8.45;;
24325;SDS011;12448;45.532;5.290;2023-12-20T04:41:46;15.70;;;9.10;;
24325;SDS011;12448;45.532;5.290;2023-12-20T04:44:20;13.05;;;7.45;;
24325;SDS011;12448;45.532;5.290;2023-12-20T04:46:55;12.82;;;5.95;;
24325;SDS011;12448;45.532;5.290;2023-12-20T04:49:26;8.60;;;6.07;;
24325;SDS011;12448;45.532;5.290;2023-12-20T04:51:55;11.88;;;4.97;;
24325;SDS011;12448;45.532;5.290;2023-12-20T04:54:34;24.45;;;4.78;;
24325;SDS011;12448;45.532;5.290;2023-12-20T04:57:00;24.35;;;7.18;;
24325;SDS011;12448;45.532;5.290;2023-12-20T04:59:31;9.30;;;6.22;;
24325;SDS011;12448;45.532;5.290;2023-12-20T05:02:02;7.80;;;4.97;;
24325;SDS011;12448;45.532;5.290;2023-12-20T05:04:34;8.38;;;5.65;;
24325;SDS011;12448;45.532;5.290;2023-12-20T05:07:03;11.77;;;6.45;;
24325;SDS011;12448;45.532;5.290;2023-12-20T05:13:33;20.10;;;9.88;;
24325;SDS011;12448;45.532;5.290;2023-12-20T05:16:04;24.08;;;12.82;;
24325;SDS011;12448;45.532;5.290;2023-12-20T05:18:34;33.53;;;13.27;;
24325;SDS011;12448;45.532;5.290;2023-12-20T05:21:40;43.33;;;22.58;;
24325;SDS011;12448;45.532;5.290;2023-12-20T05:24:20;54.80;;;12.93;;
24325;SDS011;12448;45.532;5.290;2023-12-20T05:26:49;77.18;;;11.82;;
24325;SDS011;12448;45.532;5.290;2023-12-20T05:29:21;49.28;;;9.23;;
24325;SDS011;12448;45.532;5.290;2023-12-20T05:31:51;167.85;;;13.10;;
24325;SDS011;12448;45.532;5.290;2023-12-20T05:34:20;52.15;;;11.73;;
24325;SDS011;12448;45.532;5.290;2023-12-20T05:36:57;60.45;;;8.65;;
24325;SDS011;12448;45.532;5.290;2023-12-20T05:39:23;49.10;;;8.65;;
24325;SDS011;12448;45.532;5.290;2023-12-20T05:42:12;128.07;;;9.02;;
24325;SDS011;12448;45.532;5.290;2023-12-20T05:44:41;225.68;;;21.92;;
24325;SDS011;12448;45.532;5.290;2023-12-20T05:47:19;32.13;;;12.85;;
24325;SDS011;12448;45.532;5.290;2023-12-20T05:49:47;74.82;;;13.35;;
24325;SDS011;12448;45.532;5.290;2023-12-20T05:52:15;67.40;;;26.35;;
24325;SDS011;12448;45.532;5.290;2023-12-20T05:55:07;223.02;;;13.43;;
24325;SDS011;12448;45.532;5.290;2023-12-20T05:57:36;377.05;;;78.30;;
24325;SDS011;12448;45.532;5.290;2023-12-20T06:00:02;250.85;;;75.32;;
24325;SDS011;12448;45.532;5.290;2023-12-20T06:02:28;197.13;;;88.47;;
24325;SDS011;12448;45.532;5.290;2023-12-20T06:04:54;417.98;;;169.00;;
24325;SDS011;12448;45.532;5.290;2023-12-20T06:07:20;933.88;;;367.00;;
24325;SDS011;12448;45.532;5.290;2023-12-20T06:10:09;224.82;;;83.45;;
24325;SDS011;12448;45.532;5.290;2023-12-20T06:12:34;330.65;;;120.25;;
24325;SDS011;12448;45.532;5.290;2023-12-20T06:15:01;273.88;;;80.65;;
24325;SDS011;12448;45.532;5.290;2023-12-20T06:17:28;532.00;;;231.27;;
24325;SDS011;12448;45.532;5.290;2023-12-20T06:20:00;304.98;;;124.93;;
24325;SDS011;12448;45.532;5.290;2023-12-20T06:22:32;491.58;;;124.70;;
24325;SDS011;12448;45.532;5.290;2023-12-20T06:25:27;560.05;;;172.15;;
24325;SDS011;12448;45.532;5.290;2023-12-20T06:27:56;429.33;;;159.77;;
24325;SDS011;12448;45.532;5.290;2023-12-20T06:30:46;240.93;;;78.80;;
24325;SDS011;12448;45.532;5.290;2023-12-20T06:34:02;209.90;;;32.90;;
24325;SDS011;12448;45.532;5.290;2023-12-20T06:36:13;253.98;;;43.97;;
24325;SDS011;12448;45.532;5.290;2023-12-20T06:38:44;160.75;;;19.55;;
24325;SDS011;12448;45.532;5.290;2023-12-20T06:41:13;206.75;;;37.40;;
24325;SDS011;12448;45.532;5.290;2023-12-20T06:43:41;410.20;;;89.28;;
24325;SDS011;12448;45.532;5.290;2023-12-20T06:46:10;317.02;;;24.80;;
24325;SDS011;12448;45.532;5.290;2023-12-20T06:48:38;103.10;;;29.65;;
24325;SDS011;12448;45.532;5.290;2023-12-20T06:51:10;115.10;;;20.90;;
24325;SDS011;12448;45.532;5.290;2023-12-20T06:53:53;570.80;;;32.75;;
24325;SDS011;12448;45.532;5.290;2023-12-20T06:59:55;134.23;;;20.92;;
24325;SDS011;12448;45.532;5.290;2023-12-20T07:02:33;311.95;;;23.58;;
24325;SDS011;12448;45.532;5.290;2023-12-20T07:05:31;356.50;;;18.13;;
24325;SDS011;12448;45.532;5.290;2023-12-20T07:08:00;567.65;;;35.20;;
24325;SDS011;12448;45.532;5.290;2023-12-20T07:10:31;457.65;;;32.38;;
24325;SDS011;12448;45.532;5.290;2023-12-20T07:13:05;531.08;;;55.08;;
24325;SDS011;12448;45.532;5.290;2023-12-20T07:15:34;268.70;;;17.63;;
24325;SDS011;12448;45.532;5.290;2023-12-20T07:18:12;273.70;;;22.88;;
24325;SDS011;12448;45.532;5.290;2023-12-20T07:20:40;487.83;;;28.15;;
24325;SDS011;12448;45.532;5.290;2023-12-20T07:23:19;521.75;;;25.38;;
24325;SDS011;12448;45.532;5.290;2023-12-20T07:25:48;501.77;;;67.60;;
24325;SDS011;12448;45.532;5.290;2023-12-20T07:28:17;540.35;;;45.45;;
24325;SDS011;12448;45.532;5.290;2023-12-20T07:30:43;734.42;;;24.45;;
24325;SDS011;12448;45.532;5.290;2023-12-20T07:33:14;878.67;;;45.95;;
24325;SDS011;12448;45.532;5.290;2023-12-20T07:35:46;725.38;;;28.52;;
24325;SDS011;12448;45.532;5.290;2023-12-20T07:38:19;713.03;;;46.10;;
24325;SDS011;12448;45.532;5.290;2023-12-20T07:40:50;476.98;;;36.38;;
24325;SDS011;12448;45.532;5.290;2023-12-20T07:43:24;540.25;;;25.65;;
24325;SDS011;12448;45.532;5.290;2023-12-20T07:46:03;591.42;;;25.70;;
24325;SDS011;12448;45.532;5.290;2023-12-20T07:48:59;584.15;;;48.50;;
24325;SDS011;12448;45.532;5.290;2023-12-20T07:58:09;882.90;;;28.38;;
24325;SDS011;12448;45.532;5.290;2023-12-20T08:00:47;649.72;;;27.13;;
24325;SDS011;12448;45.532;5.290;2023-12-20T08:03:16;751.92;;;36.13;;
24325;SDS011;12448;45.532;5.290;2023-12-20T08:05:41;714.13;;;27.15;;
24325;SDS011;12448;45.532;5.290;2023-12-20T08:08:13;919.53;;;29.35;;
24325;SDS011;12448;45.532;5.290;2023-12-20T08:10:42;1001.20;;;36.92;;
24325;SDS011;12448;45.532;5.290;2023-12-20T08:13:29;1163.25;;;47.63;;
24325;SDS011;12448;45.532;5.290;2023-12-20T08:16:09;871.92;;;31.10;;
24325;SDS011;12448;45.532;5.290;2023-12-20T08:18:48;807.50;;;30.48;;
24325;SDS011;12448;45.532;5.290;2023-12-20T08:22:20;1007.97;;;35.20;;
24325;SDS011;12448;45.532;5.290;2023-12-20T08:24:49;1255.53;;;42.95;;
24325;SDS011;12448;45.532;5.290;2023-12-20T08:27:31;1525.32;;;64.60;;
24325;SDS011;12448;45.532;5.290;2023-12-20T08:30:08;1386.80;;;57.20;;
24325;SDS011;12448;45.532;5.290;2023-12-20T08:32:54;1140.50;;;38.78;;
24325;SDS011;12448;45.532;5.290;2023-12-20T08:36:08;1433.18;;;53.88;;
24325;SDS011;12448;45.532;5.290;2023-12-20T08:38:42;1582.82;;;62.60;;
24325;SDS011;12448;45.532;5.290;2023-12-20T08:41:12;1611.60;;;56.10;;
24325;SDS011;12448;45.532;5.290;2023-12-20T08:43:41;1848.72;;;61.33;;
24325;SDS011;12448;45.532;5.290;2023-12-20T08:46:10;1921.65;;;61.28;;
24325;SDS011;12448;45.532;5.290;2023-12-20T08:48:37;1637.30;;;53.88;;
24325;SDS011;12448;45.532;5.290;2023-12-20T08:51:14;1837.13;;;75.07;;
24325;SDS011;12448;45.532;5.290;2023-12-20T08:53:51;1720.82;;;54.42;;
24325;SDS011;12448;45.532;5.290;2023-12-20T08:56:36;1480.72;;;64.57;;
24325;SDS011;12448;45.532;5.290;2023-12-20T08:59:04;1395.40;;;66.82;;
24325;SDS011;12448;45.532;5.290;2023-12-20T09:01:53;1322.85;;;50.45;;
24325;SDS011;12448;45.532;5.290;2023-12-20T09:04:22;1214.63;;;56.47;;
24325;SDS011;12448;45.532;5.290;2023-12-20T09:06:48;1604.47;;;52.65;;
24325;SDS011;12448;45.532;5.290;2023-12-20T09:09:14;1620.13;;;63.90;;
24325;SDS011;12448;45.532;5.290;2023-12-20T09:14:50;1715.63;;;61.00;;
24325;SDS011;12448;45.532;5.290;2023-12-20T09:17:19;1658.60;;;68.25;;
24325;SDS011;12448;45.532;5.290;2023-12-20T09:19:50;1965.85;;;66.68;;
24325;SDS011;12448;45.532;5.290;2023-12-20T09:22:50;1678.63;;;63.13;;
24325;SDS011;12448;45.532;5.290;2023-12-20T09:25:21;1327.78;;;55.85;;
24325;SDS011;12448;45.532;5.290;2023-12-20T09:31:49;1244.97;;;44.58;;
24325;SDS011;12448;45.532;5.290;2023-12-20T09:34:26;1849.43;;;70.28;;
24325;SDS011;12448;45.532;5.290;2023-12-20T09:36:54;1609.55;;;55.97;;
24325;SDS011;12448;45.532;5.290;2023-12-20T09:39:20;1602.25;;;63.92;;
24325;SDS011;12448;45.532;5.290;2023-12-20T09:44:39;733.05;;;27.10;;
24325;SDS011;12448;45.532;5.290;2023-12-20T09:47:15;1407.72;;;48.22;;
24325;SDS011;12448;45.532;5.290;2023-12-20T09:49:45;1614.68;;;57.10;;
24325;SDS011;12448;45.532;5.290;2023-12-20T09:52:39;1065.40;;;40.35;;
24325;SDS011;12448;45.532;5.290;2023-12-20T09:58:27;939.53;;;40.45;;
24325;SDS011;12448;45.532;5.290;2023-12-20T10:01:05;133.07;;;12.85;;
24325;SDS011;12448;45.532;5.290;2023-12-20T10:06:40;41.97;;;16.05;;
24325;SDS011;12448;45.532;5.290;2023-12-20T10:09:14;32.97;;;14.43;;
24325;SDS011;12448;45.532;5.290;2023-12-20T10:12:18;29.50;;;13.43;;
24325;SDS011;12448;45.532;5.290;2023-12-20T10:14:59;37.05;;;18.40;;
24325;SDS011;12448;45.532;5.290;2023-12-20T10:17:56;37.85;;;17.08;;
24325;SDS011;12448;45.532;5.290;2023-12-20T10:20:30;44.95;;;19.58;;
24325;SDS011;12448;45.532;5.290;2023-12-20T10:23:10;33.22;;;16.55;;
24325;SDS011;12448;45.532;5.290;2023-12-20T10:25:40;31.75;;;15.10;;
24325;SDS011;12448;45.532;5.290;2023-12-20T10:28:18;37.72;;;17.27;;
24325;SDS011;12448;45.532;5.290;2023-12-20T10:30:58;39.25;;;17.23;;
24325;SDS011;12448;45.532;5.290;2023-12-20T10:33:46;35.10;;;15.93;;
24325;SDS011;12448;45.532;5.290;2023-12-20T10:36:15;39.50;;;17.77;;
24325;SDS011;12448;45.532;5.290;2023-12-20T10:39:03;162.75;;;20.95;;
24325;SDS011;12448;45.532;5.290;2023-12-20T10:41:41;240.38;;;22.50;;
24325;SDS011;12448;45.532;5.290;2023-12-20T10:44:13;114.88;;;20.08;;
24325;SDS011;12448;45.532;5.290;2023-12-20T10:46:43;57.55;;;22.98;;
24325;SDS011;12448;45.532;5.290;2023-12-20T10:49:18;279.33;;;24.33;;
24325;SDS011;12448;45.532;5.290;2023-12-20T10:52:03;48.88;;;20.83;;
24325;SDS011;12448;45.532;5.290;2023-12-20T10:54:33;35.40;;;16.95;;
24325;SDS011;12448;45.532;5.290;2023-12-20T10:57:08;42.65;;;21.27;;
24325;SDS011;12448;45.532;5.290;2023-12-20T10:59:47;40.97;;;21.55;;
24325;SDS011;12448;45.532;5.290;2023-12-20T11:02:25;35.35;;;18.10;;
24325;SDS011;12448;45.532;5.290;2023-12-20T11:05:10;34.13;;;16.95;;
24325;SDS011;12448;45.532;5.290;2023-12-20T11:07:50;32.70;;;15.38;;
24325;SDS011;12448;45.532;5.290;2023-12-20T11:10:33;34.40;;;17.92;;
24325;SDS011;12448;45.532;5.290;2023-12-20T11:14:22;29.42;;;15.43;;
24325;SDS011;12448;45.532;5.290;2023-12-20T11:16:38;28.45;;;13.95;;
24325;SDS011;12448;45.532;5.290;2023-12-20T11:19:07;36.35;;;18.88;;
24325;SDS011;12448;45.532;5.290;2023-12-20T11:21:47;41.50;;;17.25;;
24325;SDS011;12448;45.532;5.290;2023-12-20T11:24:16;73.65;;;19.02;;
24325;SDS011;12448;45.532;5.290;2023-12-20T11:26:59;134.10;;;20.73;;
24325;SDS011;12448;45.532;5.290;2023-12-20T11:29:35;37.95;;;18.30;;
24325;SDS011;12448;45.532;5.290;2023-12-20T11:37:38;242.02;;;22.15;;
24325;SDS011;12448;45.532;5.290;2023-12-20T11:40:26;48.97;;;21.15;;
24325;SDS011;12448;45.532;5.290;2023-12-20T11:46:14;41.67;;;20.20;;
24325;SDS011;12448;45.532;5.290;2023-12-20T11:48:54;53.22;;;21.77;;
24325;SDS011;12448;45.532;5.290;2023-12-20T11:51:22;42.67;;;21.20;;
24325;SDS011;12448;45.532;5.290;2023-12-20T11:53:53;45.08;;;22.08;;
24325;SDS011;12448;45.532;5.290;2023-12-20T11:59:17;32.72;;;17.77;;
24325;SDS011;12448;45.532;5.290;2023-12-20T12:01:55;24.13;;;12.13;;
24325;SDS011;12448;45.532;5.290;2023-12-20T12:08:07;24.85;;;14.80;;
24325;SDS011;12448;45.532;5.290;2023-12-20T12:10:35;27.88;;;15.40;;
24325;SDS011;12448;45.532;5.290;2023-12-20T12:13:30;30.25;;;15.88;;
24325;SDS011;12448;45.532;5.290;2023-12-20T12:16:07;26.92;;;14.15;;
24325;SDS011;12448;45.532;5.290;2023-12-20T12:18:34;18.40;;;11.02;;
24325;SDS011;12448;45.532;5.290;2023-12-20T12:21:24;21.20;;;12.15;;
24325;SDS011;12448;45.532;5.290;2023-12-20T12:23:53;20.92;;;11.90;;
24325;SDS011;12448;45.532;5.290;2023-12-20T12:27:16;20.48;;;11.27;;
24325;SDS011;12448;45.532;5.290;2023-12-20T12:30:00;22.25;;;10.23;;
24325;SDS011;12448;45.532;5.290;2023-12-20T12:32:35;15.13;;;9.18;;
24325;SDS011;12448;45.532;5.290;2023-12-20T12:35:10;10.30;;;7.53;;
24325;SDS011;12448;45.532;5.290;2023-12-20T12:37:39;12.15;;;6.43;;
24325;SDS011;12448;45.532;5.290;2023-12-20T12:42:56;11.13;;;5.50;;
24325;SDS011;12448;45.532;5.290;2023-12-20T12:45:35;12.20;;;5.35;;
24325;SDS011;12448;45.532;5.290;2023-12-20T12:48:04;11.85;;;5.65;;
24325;SDS011;12448;45.532;5.290;2023-12-20T12:50:31;12.00;;;5.97;;
24325;SDS011;12448;45.532;5.290;2023-12-20T12:55:56;14.13;;;4.82;;
24325;SDS011;12448;45.532;5.290;2023-12-20T12:58:41;8.45;;;4.53;;
24325;SDS011;12448;45.532;5.290;2023-12-20T13:01:07;8.88;;;4.18;;
24325;SDS011;12448;45.532;5.290;2023-12-20T13:07:23;10.57;;;4.13;;
24325;SDS011;12448;45.532;5.290;2023-12-20T13:09:49;9.63;;;4.43;;
24325;SDS011;12448;45.532;5.290;2023-12-20T13:12:42;11.13;;;4.32;;
24325;SDS011;12448;45.532;5.290;2023-12-20T13:25:56;7.85;;;4.75;;
24325;SDS011;12448;45.532;5.290;2023-12-20T13:36:08;19.27;;;6.60;;
24325;SDS011;12448;45.532;5.290;2023-12-20T13:38:36;21.85;;;8.10;;
24325;SDS011;12448;45.532;5.290;2023-12-20T13:41:34;35.85;;;11.43;;
24325;SDS011;12448;45.532;5.290;2023-12-20T13:44:06;26.48;;;10.90;;
24325;SDS011;12448;45.532;5.290;2023-12-20T13:46:35;81.03;;;22.63;;
24325;SDS011;12448;45.532;5.290;2023-12-20T13:49:28;43.65;;;13.45;;
24325;SDS011;12448;45.532;5.290;2023-12-20T13:52:17;93.38;;;22.08;;
24325;SDS011;12448;45.532;5.290;2023-12-20T13:55:11;19.35;;;6.57;;
24325;SDS011;12448;45.532;5.290;2023-12-20T14:01:04;9.93;;;5.30;;
24325;SDS011;12448;45.532;5.290;2023-12-20T14:03:30;13.25;;;5.78;;
24325;SDS011;12448;45.532;5.290;2023-12-20T14:06:01;8.70;;;4.30;;
24325;SDS011;12448;45.532;5.290;2023-12-20T14:08:31;11.40;;;4.95;;
24325;SDS011;12448;45.532;5.290;2023-12-20T14:11:01;13.00;;;5.78;;
24325;SDS011;12448;45.532;5.290;2023-12-20T14:13:30;14.90;;;7.80;;
24325;SDS011;12448;45.532;5.290;2023-12-20T14:16:01;26.17;;;9.75;;
24325;SDS011;12448;45.532;5.290;2023-12-20T14:18:30;22.92;;;11.90;;
24325;SDS011;12448;45.532;5.290;2023-12-20T14:21:05;15.98;;;7.20;;
24325;SDS011;12448;45.532;5.290;2023-12-20T14:24:08;16.73;;;8.45;;
24325;SDS011;12448;45.532;5.290;2023-12-20T14:26:39;11.73;;;7.13;;
24325;SDS011;12448;45.532;5.290;2023-12-20T14:29:13;16.17;;;8.10;;
24325;SDS011;12448;45.532;5.290;2023-12-20T14:31:39;27.15;;;11.82;;
24325;SDS011;12448;45.532;5.290;2023-12-20T14:34:05;22.80;;;12.93;;
24325;SDS011;12448;45.532;5.290;2023-12-20T14:36:31;16.58;;;9.90;;
24325;SDS011;12448;45.532;5.290;2023-12-20T14:39:03;14.38;;;7.03;;
24325;SDS011;12448;45.532;5.290;2023-12-20T14:41:42;21.10;;;8.90;;
24325;SDS011;12448;45.532;5.290;2023-12-20T14:47:57;22.75;;;10.93;;
24325;SDS011;12448;45.532;5.290;2023-12-20T14:50:27;36.45;;;18.33;;
24325;SDS011;12448;45.532;5.290;2023-12-20T14:52:55;26.55;;;12.52;;
24325;SDS011;12448;45.532;5.290;2023-12-20T14:55:55;23.08;;;8.85;;
24325;SDS011;12448;45.532;5.290;2023-12-20T14:58:28;41.95;;;18.45;;
24325;SDS011;12448;45.532;5.290;2023-12-20T15:03:49;20.33;;;7.20;;
24325;SDS011;12448;45.532;5.290;2023-12-20T15:06:18;43.42;;;19.60;;
24325;SDS011;12448;45.532;5.290;2023-12-20T15:08:49;64.47;;;31.23;;
24325;SDS011;12448;45.532;5.290;2023-12-20T15:11:41;51.58;;;23.75;;
24325;SDS011;12448;45.532;5.290;2023-12-20T15:14:21;48.63;;;23.33;;
24325;SDS011;12448;45.532;5.290;2023-12-20T15:16:53;73.35;;;34.80;;
24325;SDS011;12448;45.532;5.290;2023-12-20T15:19:24;72.68;;;34.95;;
24325;SDS011;12448;45.532;5.290;2023-12-20T15:21:55;60.30;;;26.67;;
24325;SDS011;12448;45.532;5.290;2023-12-20T15:24:32;69.22;;;32.17;;
24325;SDS011;12448;45.532;5.290;2023-12-20T15:27:05;38.55;;;17.00;;
24325;SDS011;12448;45.532;5.290;2023-12-20T15:29:31;29.00;;;12.38;;
24325;SDS011;12448;45.532;5.290;2023-12-20T15:32:03;35.20;;;13.32;;
24325;SDS011;12448;45.532;5.290;2023-12-20T15:34:40;24.17;;;11.90;;
24325;SDS011;12448;45.532;5.290;2023-12-20T15:37:09;23.00;;;9.75;;
24325;SDS011;12448;45.532;5.290;2023-12-20T15:39:35;29.63;;;10.70;;
24325;SDS011;12448;45.532;5.290;2023-12-20T15:42:01;30.17;;;10.75;;
24325;SDS011;12448;45.532;5.290;2023-12-20T15:44:27;24.65;;;7.65;;
24325;SDS011;12448;45.532;5.290;2023-12-20T15:47:13;19.98;;;7.47;;
24325;SDS011;12448;45.532;5.290;2023-12-20T15:52:14;36.17;;;13.07;;
24325;SDS011;12448;45.532;5.290;2023-12-20T15:54:43;37.67;;;16.48;;
24325;SDS011;12448;45.532;5.290;2023-12-20T15:57:29;32.10;;;13.75;;
24325;SDS011;12448;45.532;5.290;2023-12-20T16:00:11;73.28;;;32.67;;
24325;SDS011;12448;45.532;5.290;2023-12-20T16:02:37;23.73;;;12.38;;
24325;SDS011;12448;45.532;5.290;2023-12-20T16:05:32;28.85;;;13.93;;
24325;SDS011;12448;45.532;5.290;2023-12-20T16:07:57;32.58;;;11.32;;
24325;SDS011;12448;45.532;5.290;2023-12-20T16:10:28;37.67;;;13.02;;
24325;SDS011;12448;45.532;5.290;2023-12-20T16:12:59;61.22;;;22.10;;
24325;SDS011;12448;45.532;5.290;2023-12-20T16:15:28;35.50;;;12.60;;
24325;SDS011;12448;45.532;5.290;2023-12-20T16:18:00;36.63;;;13.45;;
24325;SDS011;12448;45.532;5.290;2023-12-20T16:20:26;12.52;;;4.88;;
24325;SDS011;12448;45.532;5.290;2023-12-20T16:22:59;48.78;;;19.27;;
24325;SDS011;12448;45.532;5.290;2023-12-20T16:25:31;15.05;;;5.13;;
24325;SDS011;12448;45.532;5.290;2023-12-20T16:28:02;17.27;;;5.30;;
24325;SDS011;12448;45.532;5.290;2023-12-20T16:30:32;19.92;;;4.90;;
24325;SDS011;12448;45.532;5.290;2023-12-20T16:33:08;15.90;;;5.25;;
24325;SDS011;12448;45.532;5.290;2023-12-20T16:35:37;29.05;;;8.20;;
24325;SDS011;12448;45.532;5.290;2023-12-20T16:38:08;16.90;;;6.03;;
24325;SDS011;12448;45.532;5.290;2023-12-20T16:40:37;20.15;;;7.40;;
24325;SDS011;12448;45.532;5.290;2023-12-20T16:43:03;15.38;;;6.20;;
24325;SDS011;12448;45.532;5.290;2023-12-20T16:45:31;15.30;;;5.10;;
24325;SDS011;12448;45.532;5.290;2023-12-20T16:48:06;30.30;;;8.43;;